sensor_id;sensor_type;location;lat;lon;timestamp;pressure;altitude;pressure_sealevel;temperature;humidity
21566;BME280;10943;48.738;9.320;2022-09-13T00:01:09;98420.53;;;16.26;64.93
21566;BME280;10943;48.738;9.320;2022-09-13T00:03:37;98429.59;;;16.08;65.63
21566;BME280;10943;48.738;9.320;2022-09-13T00:06:08;98426.75;;;16.13;65.58
21566;BME280;10943;48.738;9.320;2022-09-13T00:08:37;98423.81;;;15.89;65.98
21566;BME280;10943;48.738;9.320;2022-09-13T00:11:06;98416.75;;;16.02;65.63
21566;BME280;10943;48.738;9.320;2022-09-13T00:13:39;98416.38;;;16.19;65.21
21566;BME280;10943;48.738;9.320;2022-09-13T00:16:12;98414.47;;;16.14;65.63
21566;BME280;10943;48.738;9.320;2022-09-13T00:18:41;98403.03;;;16.05;65.90
21566;BME280;10943;48.738;9.320;2022-09-13T00:21:14;98415.94;;;16.01;66.15
21566;BME280;10943;48.738;9.320;2022-09-13T00:23:45;98420.38;;;16.02;65.87
21566;BME280;10943;48.738;9.320;2022-09-13T00:26:18;98423.09;;;16.17;65.70
21566;BME280;10943;48.738;9.320;2022-09-13T00:28:55;98413.09;;;16.06;66.50
21566;BME280;10943;48.738;9.320;2022-09-13T00:31:27;98408.94;;;16.04;66.44
21566;BME280;10943;48.738;9.320;2022-09-13T00:33:58;98402.75;;;16.07;66.40
21566;BME280;10943;48.738;9.320;2022-09-13T00:36:26;98400.28;;;16.00;66.67
21566;BME280;10943;48.738;9.320;2022-09-13T00:38:54;98406.66;;;15.40;69.05
21566;BME280;10943;48.738;9.320;2022-09-13T00:41:21;98401.13;;;15.14;69.78
21566;BME280;10943;48.738;9.320;2022-09-13T00:46:48;98412.19;;;15.50;68.19
21566;BME280;10943;48.738;9.320;2022-09-13T00:51:59;98423.19;;;15.06;69.84
21566;BME280;10943;48.738;9.320;2022-09-13T00:54:39;98422.06;;;15.01;70.00
21566;BME280;10943;48.738;9.320;2022-09-13T01:00:26;98416.44;;;15.32;69.09
21566;BME280;10943;48.738;9.320;2022-09-13T01:03:01;98416.91;;;15.55;68.71
21566;BME280;10943;48.738;9.320;2022-09-13T01:05:36;98400.63;;;15.83;67.22
21566;BME280;10943;48.738;9.320;2022-09-13T01:08:08;98397.19;;;16.02;66.39
21566;BME280;10943;48.738;9.320;2022-09-13T01:10:44;98399.25;;;15.75;67.24
21566;BME280;10943;48.738;9.320;2022-09-13T01:13:18;98391.19;;;15.63;67.81
21566;BME280;10943;48.738;9.320;2022-09-13T01:15:48;98386.75;;;15.57;67.41
21566;BME280;10943;48.738;9.320;2022-09-13T01:18:16;98394.63;;;15.40;66.84
21566;BME280;10943;48.738;9.320;2022-09-13T01:52:20;98395.28;;;14.95;69.99
21566;BME280;10943;48.738;9.320;2022-09-13T01:55:05;98393.59;;;14.99;70.52
21566;BME280;10943;48.738;9.320;2022-09-13T02:00:53;98400.53;;;15.23;69.79
21566;BME280;10943;48.738;9.320;2022-09-13T02:03:36;98403.53;;;15.52;68.72
21566;BME280;10943;48.738;9.320;2022-09-13T02:06:22;98401.56;;;15.47;68.79
21566;BME280;10943;48.738;9.320;2022-09-13T02:08:58;98401.94;;;15.10;69.94
21566;BME280;10943;48.738;9.320;2022-09-13T02:11:28;98397.53;;;14.83;71.38
21566;BME280;10943;48.738;9.320;2022-09-13T02:17:08;98404.47;;;14.39;72.90
21566;BME280;10943;48.738;9.320;2022-09-13T02:20:00;98406.19;;;14.71;71.41
21566;BME280;10943;48.738;9.320;2022-09-13T02:22:35;98403.69;;;14.69;71.57
21566;BME280;10943;48.738;9.320;2022-09-13T02:25:12;98404.75;;;14.27;72.96
21566;BME280;10943;48.738;9.320;2022-09-13T02:27:46;98403.09;;;14.47;72.85
21566;BME280;10943;48.738;9.320;2022-09-13T02:30:16;98411.50;;;14.67;72.06
21566;BME280;10943;48.738;9.320;2022-09-13T02:33:02;98414.81;;;14.59;71.71
21566;BME280;10943;48.738;9.320;2022-09-13T02:35:39;98408.09;;;14.60;71.69
21566;BME280;10943;48.738;9.320;2022-09-13T02:38:17;98414.56;;;14.71;71.81
21566;BME280;10943;48.738;9.320;2022-09-13T02:40:59;98420.13;;;14.87;71.28
21566;BME280;10943;48.738;9.320;2022-09-13T02:43:39;98418.72;;;14.74;71.63
21566;BME280;10943;48.738;9.320;2022-09-13T02:54:53;98405.88;;;14.47;72.08
21566;BME280;10943;48.738;9.320;2022-09-13T02:57:39;98411.72;;;14.30;73.23
21566;BME280;10943;48.738;9.320;2022-09-13T03:00:13;98412.00;;;14.44;72.73
21566;BME280;10943;48.738;9.320;2022-09-13T03:02:42;98409.78;;;14.61;71.64
21566;BME280;10943;48.738;9.320;2022-09-13T03:05:11;98411.19;;;14.59;71.81
21566;BME280;10943;48.738;9.320;2022-09-13T03:07:39;98414.25;;;14.52;71.21
21566;BME280;10943;48.738;9.320;2022-09-13T03:10:10;98420.94;;;14.56;69.31
21566;BME280;10943;48.738;9.320;2022-09-13T03:16:03;98417.91;;;14.68;71.04
21566;BME280;10943;48.738;9.320;2022-09-13T03:29:08;98394.75;;;14.98;69.63
21566;BME280;10943;48.738;9.320;2022-09-13T03:32:13;98380.78;;;14.93;69.80
21566;BME280;10943;48.738;9.320;2022-09-13T03:40:17;98393.63;;;14.68;69.82
21566;BME280;10943;48.738;9.320;2022-09-13T03:43:09;98381.31;;;14.59;70.32
21566;BME280;10943;48.738;9.320;2022-09-13T03:45:47;98379.09;;;14.41;70.96
21566;BME280;10943;48.738;9.320;2022-09-13T03:48:23;98396.41;;;14.43;72.21
21566;BME280;10943;48.738;9.320;2022-09-13T03:50:51;98401.97;;;14.27;72.85
21566;BME280;10943;48.738;9.320;2022-09-13T03:53:25;98398.63;;;14.51;72.20
21566;BME280;10943;48.738;9.320;2022-09-13T03:55:59;98403.38;;;14.35;73.16
21566;BME280;10943;48.738;9.320;2022-09-13T03:58:27;98390.84;;;14.58;71.90
21566;BME280;10943;48.738;9.320;2022-09-13T04:00:54;98388.88;;;14.53;71.93
21566;BME280;10943;48.738;9.320;2022-09-13T04:03:22;98396.66;;;14.41;72.57
21566;BME280;10943;48.738;9.320;2022-09-13T04:05:50;98384.69;;;14.41;72.39
21566;BME280;10943;48.738;9.320;2022-09-13T04:08:17;98376.88;;;14.43;72.11
21566;BME280;10943;48.738;9.320;2022-09-13T04:10:49;98383.00;;;14.55;71.26
21566;BME280;10943;48.738;9.320;2022-09-13T04:13:17;98385.50;;;14.51;71.58
21566;BME280;10943;48.738;9.320;2022-09-13T04:15:44;98379.66;;;14.27;72.44
21566;BME280;10943;48.738;9.320;2022-09-13T04:18:11;98372.94;;;14.28;72.51
21566;BME280;10943;48.738;9.320;2022-09-13T04:20:39;98367.59;;;14.01;73.31
21566;BME280;10943;48.738;9.320;2022-09-13T04:23:06;98370.00;;;13.56;74.07
21566;BME280;10943;48.738;9.320;2022-09-13T04:25:37;98366.09;;;13.52;76.10
21566;BME280;10943;48.738;9.320;2022-09-13T04:28:06;98374.97;;;13.49;75.96
21566;BME280;10943;48.738;9.320;2022-09-13T04:30:33;98377.22;;;13.47;75.47
21566;BME280;10943;48.738;9.320;2022-09-13T04:33:01;98376.16;;;13.63;75.35
21566;BME280;10943;48.738;9.320;2022-09-13T04:35:28;98390.38;;;13.72;75.47
21566;BME280;10943;48.738;9.320;2022-09-13T04:37:55;98390.91;;;13.59;76.25
21566;BME280;10943;48.738;9.320;2022-09-13T04:40:24;98381.41;;;13.49;76.49
21566;BME280;10943;48.738;9.320;2022-09-13T04:42:51;98392.84;;;13.63;76.48
21566;BME280;10943;48.738;9.320;2022-09-13T04:45:19;98399.81;;;13.61;76.25
21566;BME280;10943;48.738;9.320;2022-09-13T04:47:51;98397.88;;;13.56;76.87
21566;BME280;10943;48.738;9.320;2022-09-13T04:50:20;98408.97;;;13.51;76.66
21566;BME280;10943;48.738;9.320;2022-09-13T04:52:50;98407.63;;;13.59;77.05
21566;BME280;10943;48.738;9.320;2022-09-13T04:55:26;98414.47;;;14.14;75.16
21566;BME280;10943;48.738;9.320;2022-09-13T04:57:54;98414.69;;;13.87;75.68
21566;BME280;10943;48.738;9.320;2022-09-13T05:00:22;98410.88;;;14.29;74.09
21566;BME280;10943;48.738;9.320;2022-09-13T05:02:56;98402.25;;;15.13;70.58
21566;BME280;10943;48.738;9.320;2022-09-13T05:05:23;98403.94;;;15.09;69.96
21566;BME280;10943;48.738;9.320;2022-09-13T05:07:52;98401.72;;;15.01;70.17
21566;BME280;10943;48.738;9.320;2022-09-13T05:10:19;98412.03;;;15.06;69.67
21566;BME280;10943;48.738;9.320;2022-09-13T05:12:46;98411.50;;;14.93;70.44
21566;BME280;10943;48.738;9.320;2022-09-13T05:15:14;98418.66;;;15.30;69.43
21566;BME280;10943;48.738;9.320;2022-09-13T05:17:41;98416.50;;;15.07;70.42
21566;BME280;10943;48.738;9.320;2022-09-13T05:20:10;98428.16;;;15.29;69.76
21566;BME280;10943;48.738;9.320;2022-09-13T05:22:37;98427.94;;;15.00;70.33
21566;BME280;10943;48.738;9.320;2022-09-13T05:25:05;98423.66;;;15.44;69.03
21566;BME280;10943;48.738;9.320;2022-09-13T05:27:33;98431.94;;;15.70;67.91
21566;BME280;10943;48.738;9.320;2022-09-13T05:30:00;98432.81;;;15.70;67.76
21566;BME280;10943;48.738;9.320;2022-09-13T05:32:30;98425.69;;;16.04;66.84
21566;BME280;10943;48.738;9.320;2022-09-13T05:34:58;98429.94;;;16.80;65.00
21566;BME280;10943;48.738;9.320;2022-09-13T05:37:25;98439.63;;;17.52;61.84
21566;BME280;10943;48.738;9.320;2022-09-13T05:39:53;98441.91;;;17.98;59.48
21566;BME280;10943;48.738;9.320;2022-09-13T05:42:37;98457.69;;;17.65;60.75
21566;BME280;10943;48.738;9.320;2022-09-13T05:45:05;98453.84;;;17.31;61.35
21566;BME280;10943;48.738;9.320;2022-09-13T05:47:33;98445.84;;;17.20;61.77
21566;BME280;10943;48.738;9.320;2022-09-13T05:50:00;98450.84;;;16.93;62.73
21566;BME280;10943;48.738;9.320;2022-09-13T05:52:40;98449.47;;;16.91;63.02
21566;BME280;10943;48.738;9.320;2022-09-13T05:55:08;98449.72;;;16.94;62.76
21566;BME280;10943;48.738;9.320;2022-09-13T05:57:36;98443.88;;;17.20;61.47
21566;BME280;10943;48.738;9.320;2022-09-13T06:00:04;98452.97;;;17.07;62.46
21566;BME280;10943;48.738;9.320;2022-09-13T06:02:48;98445.06;;;17.92;60.76
21566;BME280;10943;48.738;9.320;2022-09-13T06:05:34;98443.38;;;18.53;58.09
21566;BME280;10943;48.738;9.320;2022-09-13T06:08:02;98439.66;;;18.96;56.35
21566;BME280;10943;48.738;9.320;2022-09-13T06:10:29;98436.19;;;19.18;55.97
21566;BME280;10943;48.738;9.320;2022-09-13T06:12:56;98432.25;;;19.47;55.11
21566;BME280;10943;48.738;9.320;2022-09-13T06:15:23;98436.19;;;19.18;55.18
21566;BME280;10943;48.738;9.320;2022-09-13T06:17:50;98445.69;;;19.36;55.59
21566;BME280;10943;48.738;9.320;2022-09-13T06:20:18;98448.44;;;19.55;54.87
21566;BME280;10943;48.738;9.320;2022-09-13T06:22:47;98460.44;;;20.03;53.79
21566;BME280;10943;48.738;9.320;2022-09-13T06:25:15;98460.84;;;19.82;53.91
21566;BME280;10943;48.738;9.320;2022-09-13T06:27:43;98453.44;;;20.65;51.48
21566;BME280;10943;48.738;9.320;2022-09-13T06:30:10;98475.88;;;21.61;49.25
21566;BME280;10943;48.738;9.320;2022-09-13T06:32:38;98481.69;;;22.36;48.18
21566;BME280;10943;48.738;9.320;2022-09-13T06:35:07;98476.25;;;23.10;46.00
21566;BME280;10943;48.738;9.320;2022-09-13T06:37:34;98468.28;;;22.94;45.42
21566;BME280;10943;48.738;9.320;2022-09-13T06:40:02;98469.75;;;22.56;45.57
21566;BME280;10943;48.738;9.320;2022-09-13T06:42:34;98469.25;;;21.56;48.04
21566;BME280;10943;48.738;9.320;2022-09-13T06:45:03;98455.84;;;21.17;48.84
21566;BME280;10943;48.738;9.320;2022-09-13T06:47:31;98446.13;;;20.77;49.73
21566;BME280;10943;48.738;9.320;2022-09-13T06:49:58;98446.50;;;20.85;50.40
21566;BME280;10943;48.738;9.320;2022-09-13T06:52:26;98450.00;;;21.36;49.35
21566;BME280;10943;48.738;9.320;2022-09-13T06:54:54;98461.94;;;23.06;45.57
21566;BME280;10943;48.738;9.320;2022-09-13T06:57:21;98459.13;;;24.78;41.87
21566;BME280;10943;48.738;9.320;2022-09-13T06:59:49;98456.94;;;26.22;38.39
21566;BME280;10943;48.738;9.320;2022-09-13T07:02:16;98459.88;;;26.13;37.96
21566;BME280;10943;48.738;9.320;2022-09-13T07:04:45;98446.03;;;26.36;37.67
21566;BME280;10943;48.738;9.320;2022-09-13T07:07:12;98440.88;;;27.64;36.39
21566;BME280;10943;48.738;9.320;2022-09-13T07:09:44;98446.41;;;28.72;34.12
21566;BME280;10943;48.738;9.320;2022-09-13T07:12:12;98448.09;;;29.52;32.67
21566;BME280;10943;48.738;9.320;2022-09-13T07:14:44;98447.28;;;29.74;31.75
21566;BME280;10943;48.738;9.320;2022-09-13T07:17:11;98462.09;;;30.26;30.96
21566;BME280;10943;48.738;9.320;2022-09-13T07:19:39;98464.09;;;29.56;31.61
21566;BME280;10943;48.738;9.320;2022-09-13T07:22:07;98463.38;;;30.06;30.60
21566;BME280;10943;48.738;9.320;2022-09-13T07:24:34;98449.22;;;28.69;32.29
21566;BME280;10943;48.738;9.320;2022-09-13T07:27:02;98451.69;;;28.03;33.49
21566;BME280;10943;48.738;9.320;2022-09-13T07:29:29;98453.56;;;26.69;35.92
21566;BME280;10943;48.738;9.320;2022-09-13T07:31:56;98458.59;;;26.23;37.22
21566;BME280;10943;48.738;9.320;2022-09-13T07:34:25;98462.63;;;26.22;36.99
21566;BME280;10943;48.738;9.320;2022-09-13T07:36:53;98452.78;;;26.19;37.17
21566;BME280;10943;48.738;9.320;2022-09-13T07:39:21;98445.63;;;24.96;39.57
21566;BME280;10943;48.738;9.320;2022-09-13T07:41:51;98424.94;;;24.53;40.31
21566;BME280;10943;48.738;9.320;2022-09-13T07:44:20;98421.34;;;24.14;41.46
21566;BME280;10943;48.738;9.320;2022-09-13T07:46:48;98429.81;;;25.08;39.64
21566;BME280;10943;48.738;9.320;2022-09-13T07:49:18;98439.38;;;25.82;38.02
21566;BME280;10943;48.738;9.320;2022-09-13T07:51:46;98447.47;;;26.05;37.59
21566;BME280;10943;48.738;9.320;2022-09-13T07:54:18;98446.28;;;26.31;37.26
21566;BME280;10943;48.738;9.320;2022-09-13T07:56:46;98452.63;;;25.91;37.73
21566;BME280;10943;48.738;9.320;2022-09-13T07:59:17;98434.84;;;26.68;36.61
21566;BME280;10943;48.738;9.320;2022-09-13T08:01:48;98434.75;;;29.17;33.09
21566;BME280;10943;48.738;9.320;2022-09-13T08:04:23;98434.09;;;31.61;28.81
21566;BME280;10943;48.738;9.320;2022-09-13T08:06:51;98433.22;;;32.43;27.27
21566;BME280;10943;48.738;9.320;2022-09-13T08:09:19;98438.66;;;32.59;26.85
21566;BME280;10943;48.738;9.320;2022-09-13T08:11:50;98446.94;;;33.56;25.81
21566;BME280;10943;48.738;9.320;2022-09-13T08:14:42;98436.69;;;34.99;24.38
21566;BME280;10943;48.738;9.320;2022-09-13T08:18:20;98427.41;;;35.51;22.99
21566;BME280;10943;48.738;9.320;2022-09-13T08:22:48;98430.34;;;36.08;22.81
21566;BME280;10943;48.738;9.320;2022-09-13T08:25:16;98428.00;;;36.86;22.49
21566;BME280;10943;48.738;9.320;2022-09-13T08:27:44;98424.53;;;36.98;21.41
21566;BME280;10943;48.738;9.320;2022-09-13T08:30:12;98441.28;;;35.75;22.92
21566;BME280;10943;48.738;9.320;2022-09-13T08:32:39;98440.97;;;35.58;22.94
21566;BME280;10943;48.738;9.320;2022-09-13T08:35:07;98441.31;;;34.39;24.31
21566;BME280;10943;48.738;9.320;2022-09-13T08:37:38;98437.53;;;33.59;25.44
21566;BME280;10943;48.738;9.320;2022-09-13T08:40:06;98425.59;;;33.57;25.45
21566;BME280;10943;48.738;9.320;2022-09-13T08:45:48;98416.38;;;35.35;23.74
21566;BME280;10943;48.738;9.320;2022-09-13T08:48:22;98424.59;;;35.33;23.54
21566;BME280;10943;48.738;9.320;2022-09-13T08:51:03;98421.56;;;34.52;24.16
21566;BME280;10943;48.738;9.320;2022-09-13T08:53:44;98423.78;;;36.94;22.22
21566;BME280;10943;48.738;9.320;2022-09-13T08:56:43;98414.28;;;38.61;20.22
21566;BME280;10943;48.738;9.320;2022-09-13T09:03:00;98399.97;;;36.83;21.26
21566;BME280;10943;48.738;9.320;2022-09-13T09:05:52;98396.25;;;35.95;22.83
21566;BME280;10943;48.738;9.320;2022-09-13T09:11:11;98387.47;;;34.32;24.51
21566;BME280;10943;48.738;9.320;2022-09-13T09:14:00;98385.03;;;34.34;24.81
21566;BME280;10943;48.738;9.320;2022-09-13T09:16:57;98393.13;;;34.76;24.02
21566;BME280;10943;48.738;9.320;2022-09-13T09:22:17;98382.31;;;35.83;22.35
21566;BME280;10943;48.738;9.320;2022-09-13T09:24:53;98383.94;;;36.37;21.80
21566;BME280;10943;48.738;9.320;2022-09-13T09:27:22;98395.47;;;36.37;21.87
21566;BME280;10943;48.738;9.320;2022-09-13T09:29:53;98387.31;;;35.72;23.07
21566;BME280;10943;48.738;9.320;2022-09-13T09:40:39;98381.78;;;38.03;20.78
21566;BME280;10943;48.738;9.320;2022-09-13T09:43:23;98379.56;;;39.02;19.97
21566;BME280;10943;48.738;9.320;2022-09-13T09:45:56;98387.06;;;39.92;18.88
21566;BME280;10943;48.738;9.320;2022-09-13T09:48:44;98386.44;;;41.91;17.13
21566;BME280;10943;48.738;9.320;2022-09-13T09:51:18;98386.44;;;44.34;15.09
21566;BME280;10943;48.738;9.320;2022-09-13T09:53:56;98376.50;;;46.29;13.48
21566;BME280;10943;48.738;9.320;2022-09-13T09:56:33;98376.72;;;46.16;13.41
21566;BME280;10943;48.738;9.320;2022-09-13T09:59:01;98386.75;;;45.57;13.56
21566;BME280;10943;48.738;9.320;2022-09-13T10:06:43;98379.00;;;42.85;15.48
21566;BME280;10943;48.738;9.320;2022-09-13T10:17:20;98387.44;;;43.91;14.78
21566;BME280;10943;48.738;9.320;2022-09-13T10:23:18;98392.78;;;45.44;13.74
21566;BME280;10943;48.738;9.320;2022-09-13T10:31:31;98381.75;;;45.82;13.12
21566;BME280;10943;48.738;9.320;2022-09-13T10:39:34;98374.31;;;50.44;9.77
21566;BME280;10943;48.738;9.320;2022-09-13T10:42:06;98370.69;;;50.72;9.45
21566;BME280;10943;48.738;9.320;2022-09-13T10:47:22;98354.94;;;49.94;10.19
21566;BME280;10943;48.738;9.320;2022-09-13T10:49:56;98360.97;;;50.65;9.55
21566;BME280;10943;48.738;9.320;2022-09-13T10:52:33;98348.78;;;51.01;8.94
21566;BME280;10943;48.738;9.320;2022-09-13T10:57:55;98347.94;;;48.54;10.38
21566;BME280;10943;48.738;9.320;2022-09-13T11:13:17;98328.28;;;49.13;9.28
21566;BME280;10943;48.738;9.320;2022-09-13T11:25:14;98325.75;;;48.53;8.79
21566;BME280;10943;48.738;9.320;2022-09-13T11:43:10;98311.81;;;45.41;10.58
21566;BME280;10943;48.738;9.320;2022-09-13T11:57:20;98313.38;;;44.16;11.26
21566;BME280;10943;48.738;9.320;2022-09-13T11:59:59;98310.44;;;44.16;11.14
21566;BME280;10943;48.738;9.320;2022-09-13T12:06:12;98300.78;;;45.36;10.17
21566;BME280;10943;48.738;9.320;2022-09-13T12:08:54;98289.53;;;45.77;10.43
21566;BME280;10943;48.738;9.320;2022-09-13T12:11:40;98291.78;;;45.83;9.38
21566;BME280;10943;48.738;9.320;2022-09-13T12:14:16;98288.28;;;46.81;8.74
21566;BME280;10943;48.738;9.320;2022-09-13T12:16:54;98280.00;;;45.68;9.47
21566;BME280;10943;48.738;9.320;2022-09-13T12:22:07;98280.38;;;45.18;9.60
21566;BME280;10943;48.738;9.320;2022-09-13T12:24:50;98284.38;;;45.29;9.28
21566;BME280;10943;48.738;9.320;2022-09-13T12:30:19;98280.31;;;43.69;10.18
21566;BME280;10943;48.738;9.320;2022-09-13T12:32:49;98274.50;;;43.78;10.07
21566;BME280;10943;48.738;9.320;2022-09-13T12:35:36;98275.56;;;44.12;10.14
21566;BME280;10943;48.738;9.320;2022-09-13T12:41:50;98269.50;;;43.38;9.92
21566;BME280;10943;48.738;9.320;2022-09-13T13:01:34;98230.50;;;43.54;9.91
21566;BME280;10943;48.738;9.320;2022-09-13T13:04:15;98225.53;;;43.82;8.20
21566;BME280;10943;48.738;9.320;2022-09-13T13:12:30;98198.41;;;41.93;8.42
21566;BME280;10943;48.738;9.320;2022-09-13T13:15:06;98191.06;;;41.28;9.67
21566;BME280;10943;48.738;9.320;2022-09-13T13:18:28;98191.31;;;41.81;9.78
21566;BME280;10943;48.738;9.320;2022-09-13T13:23:38;98168.31;;;42.31;9.91
21566;BME280;10943;48.738;9.320;2022-09-13T13:39:44;98162.25;;;43.51;8.77
21566;BME280;10943;48.738;9.320;2022-09-13T13:42:31;98163.63;;;42.87;8.98
21566;BME280;10943;48.738;9.320;2022-09-13T13:50:19;98152.06;;;41.64;9.59
21566;BME280;10943;48.738;9.320;2022-09-13T14:01:04;98145.91;;;40.46;10.97
21566;BME280;10943;48.738;9.320;2022-09-13T14:26:52;98130.38;;;37.64;12.29
21566;BME280;10943;48.738;9.320;2022-09-13T14:29:24;98130.88;;;37.59;12.56
21566;BME280;10943;48.738;9.320;2022-09-13T14:32:02;98129.88;;;37.70;12.48
21566;BME280;10943;48.738;9.320;2022-09-13T14:34:36;98118.81;;;37.64;13.28
21566;BME280;10943;48.738;9.320;2022-09-13T14:37:17;98120.28;;;37.29;13.49
21566;BME280;10943;48.738;9.320;2022-09-13T14:39:59;98112.25;;;37.16;13.95
21566;BME280;10943;48.738;9.320;2022-09-13T14:42:47;98118.19;;;37.29;14.16
21566;BME280;10943;48.738;9.320;2022-09-13T14:45:44;98113.53;;;36.88;14.58
21566;BME280;10943;48.738;9.320;2022-09-13T14:48:22;98121.84;;;36.86;14.05
21566;BME280;10943;48.738;9.320;2022-09-13T14:51:00;98105.25;;;36.36;14.02
21566;BME280;10943;48.738;9.320;2022-09-13T14:53:34;98106.28;;;36.49;13.84
21566;BME280;10943;48.738;9.320;2022-09-13T14:56:10;98112.94;;;36.46;14.49
21566;BME280;10943;48.738;9.320;2022-09-13T14:58:52;98100.63;;;36.11;14.59
21566;BME280;10943;48.738;9.320;2022-09-13T15:01:30;98102.75;;;36.34;14.24
21566;BME280;10943;48.738;9.320;2022-09-13T15:04:02;98094.75;;;35.83;14.44
21566;BME280;10943;48.738;9.320;2022-09-13T15:06:34;98091.66;;;36.01;15.06
21566;BME280;10943;48.738;9.320;2022-09-13T15:14:34;98073.97;;;34.14;17.63
21566;BME280;10943;48.738;9.320;2022-09-13T15:20:02;98066.06;;;34.33;17.32
21566;BME280;10943;48.738;9.320;2022-09-13T15:22:32;98068.97;;;34.29;17.49
21566;BME280;10943;48.738;9.320;2022-09-13T15:25:01;98073.75;;;34.50;17.61
21566;BME280;10943;48.738;9.320;2022-09-13T15:27:43;98062.81;;;34.20;18.24
21566;BME280;10943;48.738;9.320;2022-09-13T15:33:26;98048.81;;;34.29;17.92
21566;BME280;10943;48.738;9.320;2022-09-13T15:41:38;98049.47;;;33.84;18.37
21566;BME280;10943;48.738;9.320;2022-09-13T15:44:09;98050.59;;;34.09;18.09
21566;BME280;10943;48.738;9.320;2022-09-13T15:46:48;98044.09;;;33.94;18.62
21566;BME280;10943;48.738;9.320;2022-09-13T15:49:24;98048.44;;;32.99;20.00
21566;BME280;10943;48.738;9.320;2022-09-13T15:52:00;98036.13;;;33.02;20.04
21566;BME280;10943;48.738;9.320;2022-09-13T15:54:39;98029.16;;;33.06;20.17
21566;BME280;10943;48.738;9.320;2022-09-13T15:57:18;98024.25;;;32.71;20.95
21566;BME280;10943;48.738;9.320;2022-09-13T15:59:48;98020.56;;;32.63;21.08
21566;BME280;10943;48.738;9.320;2022-09-13T16:02:20;98018.50;;;32.46;21.48
21566;BME280;10943;48.738;9.320;2022-09-13T16:04:53;98017.69;;;32.27;21.38
21566;BME280;10943;48.738;9.320;2022-09-13T16:07:23;98021.28;;;31.95;22.01
21566;BME280;10943;48.738;9.320;2022-09-13T16:09:52;98016.31;;;31.85;22.31
21566;BME280;10943;48.738;9.320;2022-09-13T16:12:20;98014.63;;;31.69;22.52
21566;BME280;10943;48.738;9.320;2022-09-13T16:14:50;97999.84;;;31.56;23.04
21566;BME280;10943;48.738;9.320;2022-09-13T16:17:24;97997.38;;;31.55;23.26
21566;BME280;10943;48.738;9.320;2022-09-13T16:19:53;97998.59;;;31.54;23.30
21566;BME280;10943;48.738;9.320;2022-09-13T16:22:21;97992.41;;;31.44;23.55
21566;BME280;10943;48.738;9.320;2022-09-13T16:24:49;97987.50;;;31.41;23.88
21566;BME280;10943;48.738;9.320;2022-09-13T16:27:18;97989.16;;;31.42;23.87
21566;BME280;10943;48.738;9.320;2022-09-13T16:29:47;97988.38;;;31.56;24.26
21566;BME280;10943;48.738;9.320;2022-09-13T16:32:14;97977.66;;;31.35;24.58
21566;BME280;10943;48.738;9.320;2022-09-13T16:34:42;97990.69;;;31.22;25.01
21566;BME280;10943;48.738;9.320;2022-09-13T16:37:14;97997.00;;;30.83;25.63
21566;BME280;10943;48.738;9.320;2022-09-13T16:39:43;97998.84;;;31.13;25.16
21566;BME280;10943;48.738;9.320;2022-09-13T16:42:13;97995.03;;;30.98;25.52
21566;BME280;10943;48.738;9.320;2022-09-13T16:44:42;97990.72;;;30.66;26.10
21566;BME280;10943;48.738;9.320;2022-09-13T16:47:11;97990.44;;;30.86;25.96
21566;BME280;10943;48.738;9.320;2022-09-13T16:49:38;97989.63;;;30.82;26.30
21566;BME280;10943;48.738;9.320;2022-09-13T16:52:06;97991.13;;;30.68;26.35
21566;BME280;10943;48.738;9.320;2022-09-13T16:54:35;97984.91;;;30.55;26.65
21566;BME280;10943;48.738;9.320;2022-09-13T16:57:05;97986.03;;;30.43;27.01
21566;BME280;10943;48.738;9.320;2022-09-13T16:59:33;97976.59;;;30.39;26.89
21566;BME280;10943;48.738;9.320;2022-09-13T17:02:04;97972.41;;;30.26;27.27
21566;BME280;10943;48.738;9.320;2022-09-13T17:04:31;97978.41;;;30.13;27.69
21566;BME280;10943;48.738;9.320;2022-09-13T17:06:59;97967.34;;;30.08;28.16
21566;BME280;10943;48.738;9.320;2022-09-13T17:09:28;97963.63;;;30.04;28.17
21566;BME280;10943;48.738;9.320;2022-09-13T17:11:57;97970.06;;;29.94;28.49
21566;BME280;10943;48.738;9.320;2022-09-13T17:14:25;97976.91;;;29.86;29.17
21566;BME280;10943;48.738;9.320;2022-09-13T17:16:56;97974.81;;;29.83;28.76
21566;BME280;10943;48.738;9.320;2022-09-13T17:19:28;97972.31;;;29.77;29.02
21566;BME280;10943;48.738;9.320;2022-09-13T17:22:02;97976.16;;;29.55;30.10
21566;BME280;10943;48.738;9.320;2022-09-13T17:24:34;97969.88;;;29.42;30.17
21566;BME280;10943;48.738;9.320;2022-09-13T17:27:04;97979.38;;;29.23;30.97
21566;BME280;10943;48.738;9.320;2022-09-13T17:29:34;97988.78;;;29.23;30.43
21566;BME280;10943;48.738;9.320;2022-09-13T17:32:04;97986.09;;;29.07;31.07
21566;BME280;10943;48.738;9.320;2022-09-13T17:34:32;97972.47;;;28.93;32.24
21566;BME280;10943;48.738;9.320;2022-09-13T17:37:01;97976.03;;;28.60;33.20
21566;BME280;10943;48.738;9.320;2022-09-13T17:39:30;97984.22;;;28.38;33.26
21566;BME280;10943;48.738;9.320;2022-09-13T17:41:57;97980.75;;;28.25;33.52
21566;BME280;10943;48.738;9.320;2022-09-13T17:44:24;97982.72;;;28.21;33.79
21566;BME280;10943;48.738;9.320;2022-09-13T17:46:52;97980.06;;;28.09;33.64
21566;BME280;10943;48.738;9.320;2022-09-13T17:49:19;97970.09;;;27.76;34.45
21566;BME280;10943;48.738;9.320;2022-09-13T17:51:46;97976.09;;;27.71;34.44
21566;BME280;10943;48.738;9.320;2022-09-13T17:54:14;97974.69;;;27.61;34.86
21566;BME280;10943;48.738;9.320;2022-09-13T17:56:43;97977.75;;;27.72;34.53
21566;BME280;10943;48.738;9.320;2022-09-13T17:59:15;97971.78;;;27.57;35.23
21566;BME280;10943;48.738;9.320;2022-09-13T18:01:49;97964.66;;;27.47;35.72
21566;BME280;10943;48.738;9.320;2022-09-13T18:04:30;97966.00;;;27.34;35.66
21566;BME280;10943;48.738;9.320;2022-09-13T18:06:58;97969.53;;;27.08;36.50
21566;BME280;10943;48.738;9.320;2022-09-13T18:09:25;97986.31;;;26.97;36.73
21566;BME280;10943;48.738;9.320;2022-09-13T18:11:53;97977.09;;;26.84;37.42
21566;BME280;10943;48.738;9.320;2022-09-13T18:14:20;97973.66;;;26.75;37.54